Terminal Aerodrome Forecast
Issued by NWS

Home | Current Version | Previous Version | Text Only | Print | Product List | Glossary On
Versions: 1 2 3 4 5 6 7 8 9 10 11 12 13 14 15 16 17 18 19 20 21 22 23 24 25 26 27 28 29 30 31 32
000
FTUS41 KCTP 250349 AAB
TAFBFD
TAF AMD
KBFD 250349Z 2504/2524 00000KT P6SM SCT040
     FM250600 27003KT P6SM BKN030
     FM250900 26006KT P6SM BKN050
     FM251500 25012G24KT P6SM VCSH BKN025 OVC060=

USA.gov is the U.S. government's official web portal to all federal, state and local government web resources and services.